Time;durP1;ratioP1;P1;durP2;ratioP2;P2;SDS_P1;SDS_P2;PMS_P1;PMS_P2;Temp;Humidity;BMP_temperature;BMP_pressure;BME280_temperature;BME280_humidity;BME280_pressure;Samples;Min_cycle;Max_cycle;Signal;HPM_P1;HPM_P2
2022/06/17 00:00:58;;;;;;;;;14.00;13.75;;;;;27.27;42.20;101862.38;5064138;28;45312;-79
2022/06/17 00:03:27;;;;;;;;;15.50;13.00;;;;;27.25;42.94;101856.19;5042979;28;45352;-79
2022/06/17 00:05:55;;;;;;;;;13.75;12.75;;;;;27.20;42.90;101852.69;5058309;28;46052;-79
2022/06/17 00:08:26;;;;;;;;;11.25;11.25;;;;;27.19;42.51;101849.13;5057792;28;45772;-79
2022/06/17 00:10:52;;;;;;;;;11.75;11.00;;;;;27.14;43.14;101844.75;5057906;28;45429;-79
2022/06/17 00:13:20;;;;;;;;;14.00;12.50;;;;;27.11;43.28;101848.31;5057850;28;45571;-78
2022/06/17 00:15:47;;;;;;;;;12.50;11.25;;;;;27.09;43.30;101851.91;5058108;28;45374;-79
2022/06/17 00:18:15;;;;;;;;;16.25;13.50;;;;;27.04;43.43;101843.97;5058189;28;45367;-79
2022/06/17 00:20:41;;;;;;;;;11.00;10.50;;;;;26.96;43.27;101843.09;5058014;28;45457;-78
2022/06/17 00:23:17;;;;;;;;;11.25;10.00;;;;;26.94;43.53;101837.81;5072601;28;45357;-78
2022/06/17 00:25:45;;;;;;;;;12.75;11.00;;;;;26.90;44.00;101832.53;5086821;27;46113;-78
2022/06/17 00:28:14;;;;;;;;;12.75;11.75;;;;;26.91;43.65;101850.25;5069921;28;45391;-79
2022/06/17 00:30:40;;;;;;;;;13.50;11.00;;;;;26.88;43.73;101854.69;5086024;28;45355;-79
2022/06/17 00:33:06;;;;;;;;;12.75;12.50;;;;;26.83;43.86;101850.28;5062309;28;45323;-79
2022/06/17 00:35:40;;;;;;;;;12.75;12.00;;;;;26.78;44.23;101836.16;5078901;28;46069;-79
2022/06/17 00:38:11;;;;;;;;;13.00;12.00;;;;;26.82;44.07;101853.84;5078434;27;45409;-78
2022/06/17 00:40:37;;;;;;;;;12.00;12.00;;;;;26.78;44.51;101850.31;5077754;28;45386;-79
2022/06/17 00:43:10;;;;;;;;;13.00;13.00;;;;;26.79;44.17;101845.88;5078141;28;45627;-79
2022/06/17 00:45:46;;;;;;;;;12.75;11.75;;;;;26.77;44.84;101845.88;5077186;27;46449;-79
2022/06/17 00:48:18;;;;;;;;;10.50;10.50;;;;;26.76;44.61;101848.53;5077890;28;45782;-79
2022/06/17 00:51:07;;;;;;;;;15.50;14.00;;;;;26.76;44.99;101843.22;5077841;28;45174;-79
2022/06/17 00:53:40;;;;;;;;;12.75;12.25;;;;;26.73;44.52;101846.75;5077821;28;45425;-79
2022/06/17 00:56:25;;;;;;;;;14.00;12.00;;;;;26.72;44.51;101842.38;5064227;28;46793;-79
2022/06/17 00:58:54;;;;;;;;;11.00;10.50;;;;;26.67;44.83;101849.47;5077316;27;45801;-80
2022/06/17 01:01:22;;;;;;;;;12.00;12.00;;;;;26.60;44.80;101842.44;5077588;27;45508;-79
2022/06/17 01:03:56;;;;;;;;;12.50;11.50;;;;;26.65;44.76;101856.56;5077868;28;45445;-79
2022/06/17 01:06:27;;;;;;;;;13.75;13.00;;;;;26.63;44.30;101864.56;5058983;28;45576;-79
2022/06/17 01:11:46;;;;;;;;;11.00;10.25;;;;;26.57;44.80;101848.63;5077555;28;45342;-79
2022/06/17 01:14:16;;;;;;;;;12.50;12.25;;;;;26.58;44.74;101859.25;5077657;28;45565;-79
2022/06/17 01:16:44;;;;;;;;;12.25;11.75;;;;;26.55;44.37;101855.75;5059240;28;45308;-78
2022/06/17 01:19:44;;;;;;;;;10.50;10.50;;;;;26.55;44.56;101864.59;5079140;27;45553;-79
2022/06/17 01:22:25;;;;;;;;;6.75;6.75;;;;;26.54;44.63;101867.25;5065495;28;45295;-79
2022/06/17 01:25:12;;;;;;;;;12.50;10.75;;;;;26.50;45.08;101855.78;5065224;28;45344;-79
2022/06/17 01:27:43;;;;;;;;;13.50;11.25;;;;;26.52;45.32;101851.31;5070095;28;45300;-79
2022/06/17 01:30:14;;;;;;;;;14.00;11.75;;;;;26.51;45.06;101861.94;5058426;28;45265;-79
2022/06/17 01:32:54;;;;;;;;;11.75;10.75;;;;;26.51;45.25;101869.91;5057312;28;45421;-79
2022/06/17 01:35:22;;;;;;;;;15.25;13.00;;;;;26.43;45.26;101864.63;5039160;28;45303;-79
2022/06/17 01:37:48;;;;;;;;;14.25;12.25;;;;;26.38;45.57;101864.66;5056605;28;45418;-79
2022/06/17 01:40:16;;;;;;;;;13.00;12.00;;;;;26.37;46.13;101860.25;5056624;28;45795;-79
2022/06/17 01:42:42;;;;;;;;;14.50;13.00;;;;;26.34;46.19;101860.28;5056926;28;45247;-79
2022/06/17 01:45:08;;;;;;;;;11.00;11.00;;;;;26.32;46.47;101862.03;5056373;28;45497;-79
2022/06/17 01:47:37;;;;;;;;;13.00;12.75;;;;;26.31;46.73;101870.00;5056251;28;46083;-79
2022/06/17 01:50:14;;;;;;;;;14.00;13.50;;;;;26.21;46.71;101869.16;5056599;28;45444;-79
2022/06/17 01:52:53;;;;;;;;;12.75;11.75;;;;;26.15;46.72;101882.44;5062163;28;45254;-79
2022/06/17 01:55:29;;;;;;;;;14.00;12.75;;;;;26.13;47.65;101893.06;5059397;28;45306;-79
2022/06/17 01:58:16;;;;;;;;;12.50;11.75;;;;;26.06;47.34;101891.31;5056610;28;45423;-79
2022/06/17 02:00:42;;;;;;;;;14.25;12.00;;;;;26.03;48.00;101876.25;5056572;28;45351;-79
2022/06/17 02:03:12;;;;;;;;;11.25;10.50;;;;;26.03;47.39;101886.88;5056400;28;45388;-79
2022/06/17 02:05:41;;;;;;;;;14.75;11.00;;;;;26.02;48.25;101892.19;5056241;28;45394;-79
2022/06/17 02:08:08;;;;;;;;;12.75;11.00;;;;;25.94;48.35;101895.75;5055830;28;46058;-79
2022/06/17 02:10:39;;;;;;;;;11.75;10.75;;;;;25.98;47.62;101909.91;5077184;28;45439;-79
2022/06/17 02:13:06;;;;;;;;;14.00;12.00;;;;;25.94;48.77;101901.06;5080629;27;45366;-78
2022/06/17 02:15:34;;;;;;;;;14.25;14.25;;;;;25.87;48.80;101890.44;5061382;28;45529;-79
2022/06/17 02:18:01;;;;;;;;;12.00;12.00;;;;;25.79;48.36;101904.63;5078220;27;45428;-79
2022/06/17 02:20:27;;;;;;;;;16.50;12.75;;;;;25.80;49.18;101916.09;5079062;28;45139;-79
2022/06/17 02:22:56;;;;;;;;;13.00;12.00;;;;;25.75;48.89;101915.25;5084482;28;45335;-79
2022/06/17 02:25:29;;;;;;;;;14.00;12.75;;;;;25.74;49.46;101911.69;5083862;27;45492;-79
2022/06/17 02:28:00;;;;;;;;;11.50;11.50;;;;;25.68;49.33;101906.41;5077946;28;45441;-79
2022/06/17 02:30:26;;;;;;;;;12.25;11.50;;;;;25.68;50.15;101909.06;5057779;28;45752;-79
2022/06/17 02:32:55;;;;;;;;;12.00;12.00;;;;;25.68;50.10;101917.00;5076113;27;45398;-79
2022/06/17 02:35:50;;;;;;;;;12.75;9.75;;;;;25.63;49.63;101918.75;5076221;28;45367;-79
2022/06/17 02:38:19;;;;;;;;;13.50;12.50;;;;;25.57;49.98;101918.78;5076166;28;45962;-78
2022/06/17 02:40:52;;;;;;;;;14.00;12.50;;;;;25.54;50.44;101916.13;5076250;28;45186;-79
2022/06/17 02:43:22;;;;;;;;;10.75;10.25;;;;;25.53;50.87;101911.69;5075938;28;45411;-78
2022/06/17 02:45:54;;;;;;;;;13.00;12.50;;;;;25.49;50.28;101924.06;5076269;28;45382;-78
2022/06/17 02:48:30;;;;;;;;;11.50;11.50;;;;;25.48;50.75;101919.66;5076638;27;45449;-78
2022/06/17 02:50:59;;;;;;;;;11.75;11.25;;;;;25.47;51.35;101917.88;5059309;28;45371;-78
2022/06/17 02:53:34;;;;;;;;;11.75;10.75;;;;;25.48;50.63;101919.66;5061036;28;45386;-79
2022/06/17 02:56:06;;;;;;;;;14.75;13.50;;;;;25.47;50.62;101918.78;5056657;28;45380;-77
2022/06/17 02:58:43;;;;;;;;;12.50;12.00;;;;;25.48;51.40;101917.88;5055410;28;45381;-79
2022/06/17 03:01:24;;;;;;;;;12.25;12.25;;;;;25.42;51.20;101920.53;5055564;28;45711;-77
2022/06/17 03:03:50;;;;;;;;;14.00;11.75;;;;;25.41;51.41;101917.91;5055784;28;45438;-78
2022/06/17 03:06:45;;;;;;;;;11.50;11.00;;;;;25.29;51.79;101897.50;5056566;28;45390;-78
2022/06/17 03:09:32;;;;;;;;;14.00;14.00;;;;;25.30;52.20;101908.13;5060570;28;45750;-79
2022/06/17 03:12:14;;;;;;;;;12.00;9.25;;;;;25.32;52.34;101903.69;5060153;28;45336;-78
2022/06/17 03:14:55;;;;;;;;;15.00;13.00;;;;;25.27;52.64;101896.66;5056096;28;45460;-78
2022/06/17 03:17:24;;;;;;;;;11.50;11.50;;;;;25.27;53.45;101896.66;5056450;28;45342;-79
2022/06/17 03:19:54;;;;;;;;;13.75;12.75;;;;;25.22;54.12;101899.25;5060723;28;45371;-78
2022/06/17 03:22:20;;;;;;;;;15.75;14.00;;;;;25.19;53.13;101899.28;5063642;28;45411;-78
2022/06/17 03:24:59;;;;;;;;;14.25;14.00;;;;;25.18;53.96;101901.03;5059311;28;45432;-78
2022/06/17 03:27:35;;;;;;;;;13.50;12.25;;;;;25.14;53.41;101886.03;5058692;28;45505;-78
2022/06/17 03:30:03;;;;;;;;;13.75;13.00;;;;;25.21;54.12;101892.22;5058558;28;46150;-78
2022/06/17 03:32:35;;;;;;;;;15.50;14.25;;;;;25.19;53.78;101888.69;5058292;28;45822;-78
2022/06/17 03:35:01;;;;;;;;;14.75;12.75;;;;;25.18;53.90;101882.47;5058662;28;45379;-78
2022/06/17 03:37:44;;;;;;;;;11.75;10.75;;;;;25.12;54.80;101863.94;5058623;28;45539;-78
2022/06/17 03:40:18;;;;;;;;;12.50;12.50;;;;;25.11;53.96;101851.56;5058246;28;46422;-78
2022/06/17 03:42:59;;;;;;;;;14.50;12.25;;;;;25.11;54.35;101853.31;5058769;28;45916;-78
2022/06/17 03:45:32;;;;;;;;;12.50;12.50;;;;;25.09;54.87;101882.47;5058497;28;45396;-78
2022/06/17 03:48:30;;;;;;;;;11.25;11.00;;;;;25.03;54.48;101901.91;5076075;27;45434;-78
2022/06/17 03:50:56;;;;;;;;;13.50;12.00;;;;;25.01;54.54;101911.59;5082523;27;46094;-78
2022/06/17 03:53:36;;;;;;;;;15.00;15.00;;;;;24.97;54.99;101907.19;5079510;27;45430;-78
2022/06/17 03:56:13;;;;;;;;;16.50;13.75;;;;;24.91;55.10;101915.13;5082697;27;45210;-77
2022/06/17 03:58:40;;;;;;;;;13.75;13.75;;;;;24.86;55.60;101922.19;5083705;28;45394;-78
2022/06/17 04:01:19;;;;;;;;;13.00;12.50;;;;;24.86;54.94;101925.69;5086798;28;45453;-78
2022/06/17 04:03:50;;;;;;;;;13.00;13.00;;;;;24.87;55.35;101919.53;5085422;28;45709;-78
2022/06/17 04:06:19;;;;;;;;;14.75;13.75;;;;;24.85;54.73;101912.47;5081105;28;45355;-78
2022/06/17 04:08:55;;;;;;;;;14.75;13.75;;;;;24.76;55.46;101913.31;5062453;28;45404;-78
2022/06/17 04:11:23;;;;;;;;;12.50;12.50;;;;;24.69;56.10;101914.19;5078232;28;45418;-77
2022/06/17 04:13:53;;;;;;;;;11.75;11.00;;;;;24.66;55.39;101909.72;5078148;28;45902;-79
2022/06/17 04:16:25;;;;;;;;;14.00;13.00;;;;;24.63;56.55;101895.56;5078504;27;45463;-78
2022/06/17 04:18:51;;;;;;;;;12.00;11.00;;;;;24.60;56.43;101903.53;5068303;28;45355;-78
2022/06/17 04:21:17;;;;;;;;;12.50;12.50;;;;;24.60;56.38;101906.16;5061119;28;46450;-78
2022/06/17 04:23:47;;;;;;;;;14.25;13.00;;;;;24.54;57.01;101896.44;5078667;28;45367;-78
2022/06/17 04:26:24;;;;;;;;;12.25;12.25;;;;;24.65;57.16;101900.00;5078545;27;45298;-78
2022/06/17 04:28:55;;;;;;;;;13.25;12.25;;;;;24.67;57.17;101910.59;5078357;28;45371;-78
2022/06/17 04:31:23;;;;;;;;;16.25;13.25;;;;;24.64;57.50;101897.34;5076710;27;46108;-78
2022/06/17 04:33:54;;;;;;;;;12.50;10.25;;;;;24.69;57.66;101906.22;5078450;27;45813;-78
2022/06/17 04:36:29;;;;;;;;;12.25;12.25;;;;;24.74;56.70;101907.13;5078411;28;45395;-78
2022/06/17 04:39:03;;;;;;;;;15.00;13.25;;;;;24.78;57.20;101910.69;5078229;27;45356;-78
2022/06/17 04:41:36;;;;;;;;;13.00;13.00;;;;;24.81;57.62;101911.56;5077830;28;46019;-78
2022/06/17 04:44:05;;;;;;;;;11.75;11.75;;;;;24.86;57.03;101915.09;5078325;27;45398;-78
2022/06/17 04:47:00;;;;;;;;;17.50;16.00;;;;;24.85;57.19;101904.50;5044018;28;46034;-78
2022/06/17 04:49:28;;;;;;;;;13.25;11.50;;;;;24.86;56.96;101904.50;5064914;28;45656;-79
2022/06/17 04:52:03;;;;;;;;;16.50;14.00;;;;;24.86;57.42;101906.28;5064783;28;47532;-79
2022/06/17 04:54:30;;;;;;;;;12.25;12.25;;;;;24.90;57.17;101913.34;5059963;28;45281;-78
2022/06/17 04:57:01;;;;;;;;;13.50;13.00;;;;;24.82;57.12;101899.19;5058517;28;45484;-80
2022/06/17 04:59:37;;;;;;;;;15.75;13.50;;;;;24.86;57.11;101912.44;5056467;28;45371;-80
2022/06/17 05:02:07;;;;;;;;;11.25;9.75;;;;;24.88;58.28;101915.13;5057056;28;45317;-77
2022/06/17 05:04:32;;;;;;;;;15.50;15.00;;;;;24.87;57.55;101921.31;5056859;28;45841;-78
2022/06/17 05:06:58;;;;;;;;;14.00;14.00;;;;;24.85;57.77;101907.16;5057058;28;45468;-80
2022/06/17 05:09:37;;;;;;;;;15.75;13.75;;;;;24.87;57.66;101908.06;5071088;28;45322;-78
2022/06/17 05:12:11;;;;;;;;;15.25;14.50;;;;;24.90;58.01;101915.13;5075935;27;45693;-78
2022/06/17 05:14:51;;;;;;;;;14.00;14.00;;;;;24.90;58.03;101912.47;5073334;28;45472;-78
2022/06/17 05:17:18;;;;;;;;;17.00;14.25;;;;;24.88;58.29;101907.19;5081545;28;45311;-78
2022/06/17 05:19:43;;;;;;;;;8.50;8.25;;;;;24.91;58.66;101907.16;5077751;27;45559;-78
2022/06/17 05:22:47;;;;;;;;;18.00;15.50;;;;;24.90;58.76;101897.44;5075838;28;45896;-78
2022/06/17 05:25:22;;;;;;;;;18.00;15.25;;;;;24.88;58.86;101900.09;5065816;27;45418;-82
2022/06/17 05:27:48;;;;;;;;;14.75;14.00;;;;;24.91;58.20;101901.00;5077825;28;45766;-84
2022/06/17 05:30:14;;;;;;;;;15.50;15.50;;;;;24.90;58.25;101894.78;5076542;28;45472;-83
2022/06/17 05:32:45;;;;;;;;;11.50;11.00;;;;;24.77;58.58;101870.06;5078322;27;45501;-81
2022/06/17 05:35:11;;;;;;;;;14.50;12.25;;;;;24.97;59.01;101891.31;5093800;27;45434;-83
2022/06/17 05:37:36;;;;;;;;;14.00;13.00;;;;;24.98;58.20;101886.88;5087218;27;45468;-83
2022/06/17 05:40:03;;;;;;;;;15.00;15.00;;;;;25.05;58.79;101891.31;5092310;27;45540;-80
2022/06/17 05:42:29;;;;;;;;;13.25;12.00;;;;;25.05;58.68;101880.72;5087861;27;45388;-85
2022/06/17 05:44:55;;;;;;;;;17.50;16.25;;;;;25.08;59.06;101890.44;5084454;28;45424;-85
2022/06/17 05:47:21;;;;;;;;;16.75;15.25;;;;;25.07;58.51;101886.88;5082937;28;45313;-84
2022/06/17 05:49:46;;;;;;;;;16.00;13.50;;;;;25.07;58.42;101878.94;5077647;27;45431;-79
2022/06/17 05:52:12;;;;;;;;;18.00;16.25;;;;;25.15;57.67;101885.16;5058922;28;45351;-78
2022/06/17 05:54:38;;;;;;;;;16.50;15.50;;;;;25.22;58.44;101888.66;5075897;28;45392;-78
2022/06/17 05:57:04;;;;;;;;;17.25;14.75;;;;;25.21;58.48;101886.94;5082662;27;45484;-78
2022/06/17 05:59:29;;;;;;;;;14.25;12.25;;;;;25.25;58.09;101886.03;5079161;27;45535;-79
2022/06/17 06:01:55;;;;;;;;;18.00;16.25;;;;;25.30;57.90;101891.31;5088716;27;47392;-81
2022/06/17 06:04:21;;;;;;;;;18.25;13.50;;;;;25.31;57.94;101891.34;5058704;28;45572;-75
2022/06/17 06:06:48;;;;;;;;;15.25;15.25;;;;;25.37;57.65;101895.78;5077795;27;45534;-77
2022/06/17 06:09:17;;;;;;;;;16.00;13.75;;;;;25.40;57.76;101890.47;5073812;28;45522;-77
2022/06/17 06:11:43;;;;;;;;;15.00;12.75;;;;;25.51;56.72;101890.50;5061053;28;48157;-75
2022/06/17 06:14:08;;;;;;;;;14.00;13.75;;;;;25.56;56.52;101883.41;5077944;28;45496;-78
2022/06/17 06:16:38;;;;;;;;;15.50;13.50;;;;;25.59;56.21;101874.59;5089647;27;45325;-78
2022/06/17 06:19:05;;;;;;;;;15.75;15.00;;;;;25.63;55.00;101861.31;5083514;27;45501;-77
2022/06/17 06:21:33;;;;;;;;;13.50;11.00;;;;;25.66;54.60;101857.78;5070510;27;45918;-81
2022/06/17 06:23:59;;;;;;;;;12.25;11.75;;;;;25.77;53.38;101866.59;5096722;27;45627;-80
2022/06/17 06:26:25;;;;;;;;;14.25;10.50;;;;;25.82;50.11;101858.63;5083951;27;45316;-77
2022/06/17 06:28:51;;;;;;;;;9.50;9.25;;;;;25.80;50.49;101844.47;5080294;28;45311;-79
2022/06/17 06:31:22;;;;;;;;;8.50;7.75;;;;;25.86;50.60;101857.75;5084269;28;45397;-80
2022/06/17 06:33:48;;;;;;;;;8.00;8.00;;;;;25.91;50.20;101855.94;5080506;28;45630;-77
2022/06/17 06:36:14;;;;;;;;;12.25;9.50;;;;;25.95;48.70;101851.50;5079117;28;45375;-77
2022/06/17 06:38:40;;;;;;;;;12.25;10.00;;;;;25.96;48.68;101854.19;5096809;27;45358;-77
2022/06/17 06:41:06;;;;;;;;;9.00;9.00;;;;;25.95;49.03;101857.72;5100168;27;45557;-78
2022/06/17 06:43:31;;;;;;;;;9.25;9.25;;;;;25.94;49.17;101860.34;5096919;27;45409;-81
2022/06/17 06:45:58;;;;;;;;;11.00;9.00;;;;;25.98;48.60;101862.13;5065582;27;45574;-76
2022/06/17 06:48:25;;;;;;;;;8.25;8.00;;;;;25.99;48.41;101855.03;5076387;27;45520;-76
2022/06/17 06:50:51;;;;;;;;;11.75;10.50;;;;;26.01;48.37;101867.44;5078255;27;45452;-76
2022/06/17 06:53:17;;;;;;;;;13.00;10.00;;;;;26.01;49.17;101864.78;5074767;28;46291;-76
2022/06/17 06:55:43;;;;;;;;;8.50;8.50;;;;;26.05;48.76;101860.34;5079402;28;45238;-75
2022/06/17 06:58:14;;;;;;;;;11.00;10.00;;;;;26.07;48.60;101861.22;5079926;28;45328;-77
2022/06/17 07:00:46;;;;;;;;;11.00;9.50;;;;;26.11;48.03;101868.31;5079188;28;46580;-77
2022/06/17 07:03:13;;;;;;;;;8.50;8.50;;;;;26.15;48.25;101871.81;5079886;28;45761;-77
2022/06/17 07:05:45;;;;;;;;;11.50;10.50;;;;;26.18;48.11;101872.72;5082505;27;45463;-77
2022/06/17 07:08:13;;;;;;;;;12.00;10.00;;;;;26.24;47.88;101870.03;5082695;27;45447;-78
2022/06/17 07:10:43;;;;;;;;;9.75;9.00;;;;;26.30;47.81;101878.84;5080469;28;46694;-77
2022/06/17 07:13:09;;;;;;;;;11.75;8.25;;;;;26.23;48.17;101859.44;5080388;28;45435;-77
2022/06/17 07:15:37;;;;;;;;;11.25;10.50;;;;;26.35;47.92;101877.94;5079300;28;45338;-77
2022/06/17 07:18:18;;;;;;;;;9.50;8.00;;;;;26.39;47.79;101879.72;5079499;28;45310;-77
2022/06/17 07:20:47;;;;;;;;;8.25;8.25;;;;;26.45;47.04;101877.94;5079694;27;45222;-78
2022/06/17 07:23:23;;;;;;;;;10.50;10.50;;;;;26.43;46.55;101867.28;5082081;28;45709;-78
2022/06/17 07:25:49;;;;;;;;;9.25;8.50;;;;;26.50;46.97;101870.81;5083596;27;45346;-78
2022/06/17 07:28:22;;;;;;;;;13.75;11.50;;;;;26.52;47.07;101872.56;5081997;27;45456;-78
2022/06/17 07:30:50;;;;;;;;;10.00;9.25;;;;;26.52;47.46;101875.22;5081525;27;46001;-77
2022/06/17 07:33:17;;;;;;;;;10.00;10.00;;;;;26.62;46.66;101886.69;5080600;28;45646;-78
2022/06/17 07:35:45;;;;;;;;;11.00;9.00;;;;;26.65;46.00;101894.66;5083608;28;45430;-78
2022/06/17 07:41:09;;;;;;;;;9.00;9.00;;;;;26.66;45.75;101895.53;5080137;27;45884;-77
2022/06/17 07:43:35;;;;;;;;;10.00;9.00;;;;;26.63;45.99;101884.91;5079634;27;45705;-76
2022/06/17 07:46:03;;;;;;;;;12.00;11.00;;;;;26.72;45.90;101899.03;5083387;27;45704;-77
2022/06/17 07:48:29;;;;;;;;;9.50;8.00;;;;;26.76;45.74;101905.19;5076311;27;45569;-79
2022/06/17 07:50:59;;;;;;;;;9.00;9.00;;;;;26.81;44.67;101919.41;5079989;27;45228;-78
2022/06/17 07:53:28;;;;;;;;;10.00;10.00;;;;;26.87;44.97;101916.69;5076848;28;45889;-80
2022/06/17 07:55:54;;;;;;;;;10.75;9.00;;;;;26.90;44.04;101930.84;5079441;27;45272;-82
2022/06/17 07:58:20;;;;;;;;;10.25;9.00;;;;;26.93;44.19;101936.16;5081275;27;45506;-79
2022/06/17 08:00:47;;;;;;;;;10.00;10.00;;;;;26.97;44.25;101944.13;5065753;28;47319;-78
2022/06/17 08:03:15;;;;;;;;;7.00;7.00;;;;;26.95;43.45;101939.66;5088833;27;45827;-79
2022/06/17 08:05:43;;;;;;;;;8.75;8.00;;;;;26.99;43.10;101936.13;5067752;27;45917;-77
2022/06/17 08:08:10;;;;;;;;;10.50;9.00;;;;;27.02;43.06;101941.41;5079544;28;45343;-77
2022/06/17 08:10:37;;;;;;;;;12.00;9.25;;;;;27.05;43.27;101946.69;5079740;27;45576;-77
2022/06/17 08:13:06;;;;;;;;;9.00;9.00;;;;;27.03;42.61;101928.13;5079074;28;45433;-78
2022/06/17 08:15:32;;;;;;;;;8.25;8.25;;;;;27.08;42.86;101933.41;5078091;27;45537;-78
2022/06/17 08:17:59;;;;;;;;;9.00;9.00;;;;;27.11;42.26;101938.72;5078260;28;45322;-78
2022/06/17 08:20:31;;;;;;;;;9.25;9.25;;;;;27.18;42.32;101934.22;5077913;27;46086;-78
2022/06/17 08:22:57;;;;;;;;;8.00;8.00;;;;;27.22;42.35;101935.09;5059657;28;45773;-78
2022/06/17 08:25:23;;;;;;;;;6.75;5.00;;;;;27.23;42.59;101926.22;5078980;28;45334;-78
2022/06/17 08:27:53;;;;;;;;;8.25;6.75;;;;;27.28;42.73;101924.41;5078992;27;45471;-78
2022/06/17 08:30:21;;;;;;;;;9.75;8.75;;;;;27.32;42.90;101928.81;5078662;27;45456;-78
2022/06/17 08:32:48;;;;;;;;;9.25;8.25;;;;;27.30;41.61;101930.59;5080292;27;45631;-78
2022/06/17 08:35:17;;;;;;;;;10.00;10.00;;;;;27.34;41.68;101911.06;5082476;28;45343;-78
2022/06/17 08:37:45;;;;;;;;;9.25;9.25;;;;;27.39;41.67;101932.31;5081978;28;45449;-78
2022/06/17 08:40:26;;;;;;;;;8.75;7.75;;;;;27.41;41.82;101917.22;5079493;28;46022;-78
2022/06/17 08:43:01;;;;;;;;;9.75;8.75;;;;;27.45;41.63;101916.31;5078292;28;45343;-79
2022/06/17 08:45:36;;;;;;;;;8.50;7.25;;;;;27.47;41.60;101906.56;5077697;27;45449;-78
2022/06/17 08:48:29;;;;;;;;;12.50;8.75;;;;;27.49;40.43;101910.97;5078302;27;45467;-78
2022/06/17 08:51:12;;;;;;;;;7.00;7.00;;;;;27.52;40.59;101902.09;5077978;28;45220;-77
2022/06/17 08:53:44;;;;;;;;;7.50;7.50;;;;;27.55;40.82;101904.72;5077741;28;45754;-78
2022/06/17 08:56:21;;;;;;;;;9.00;7.00;;;;;27.51;39.54;101889.69;5059583;28;45480;-77
2022/06/17 08:58:55;;;;;;;;;9.25;8.25;;;;;27.60;39.76;101910.88;5078173;28;45470;-78
2022/06/17 09:01:39;;;;;;;;;9.25;8.75;;;;;27.62;40.25;101914.41;5080543;28;46347;-78
2022/06/17 09:04:10;;;;;;;;;10.25;10.25;;;;;27.64;40.29;101907.28;5081762;28;45410;-78
2022/06/17 09:06:54;;;;;;;;;11.50;9.25;;;;;27.68;40.15;101907.25;5078331;27;45406;-78
2022/06/17 09:09:41;;;;;;;;;10.50;8.00;;;;;27.70;39.90;101903.69;5077627;28;45293;-78
2022/06/17 09:12:52;;;;;;;;;10.75;9.00;;;;;27.74;40.14;101902.78;5058957;28;46806;-78
2022/06/17 09:15:37;;;;;;;;;9.00;8.25;;;;;27.75;39.08;101895.69;5077268;28;45762;-78
2022/06/17 09:18:34;;;;;;;;;8.00;8.00;;;;;27.80;39.59;101897.41;5076373;27;45218;-78
2022/06/17 09:21:21;;;;;;;;;6.50;6.25;;;;;27.85;38.59;101894.69;5077403;28;45407;-77
2022/06/17 09:23:49;;;;;;;;;7.75;7.25;;;;;27.89;38.63;101893.75;5077351;28;45994;-78
2022/06/17 09:26:22;;;;;;;;;8.00;8.00;;;;;27.92;37.92;101891.06;5082971;28;45335;-78
2022/06/17 09:28:57;;;;;;;;;8.50;7.00;;;;;27.92;37.60;101875.09;5080991;28;45366;-78
2022/06/17 09:31:34;;;;;;;;;8.50;6.50;;;;;28.00;37.98;101874.13;5059594;28;45334;-78
2022/06/17 09:34:12;;;;;;;;;7.00;7.00;;;;;28.04;37.64;101875.84;5078093;28;45926;-78
2022/06/17 09:36:50;;;;;;;;;7.75;6.75;;;;;28.09;37.37;101882.91;5081820;28;45179;-78
2022/06/17 09:39:24;;;;;;;;;7.75;7.25;;;;;28.11;36.95;101872.25;5083083;27;45366;-78
2022/06/17 09:42:00;;;;;;;;;8.75;7.25;;;;;28.18;37.14;101889.94;5082214;27;45319;-78
2022/06/17 09:44:49;;;;;;;;;8.75;8.75;;;;;28.24;36.45;101895.16;5079036;28;46452;-77
2022/06/17 09:47:24;;;;;;;;;9.00;9.00;;;;;28.25;36.44;101896.03;5078590;27;45299;-78
2022/06/17 09:49:55;;;;;;;;;9.00;7.25;;;;;28.28;36.57;101888.03;5077907;27;45427;-78
2022/06/17 09:52:28;;;;;;;;;9.00;7.75;;;;;28.33;36.61;101895.94;5077608;28;45531;-78
2022/06/17 09:55:06;;;;;;;;;8.25;7.50;;;;;28.34;36.20;101887.06;5079844;28;45438;-77
2022/06/17 09:57:42;;;;;;;;;6.25;6.25;;;;;28.36;35.92;101879.94;5079618;27;45426;-78
2022/06/17 10:00:10;;;;;;;;;8.25;8.25;;;;;28.39;36.59;101885.25;5060847;28;45303;-78
2022/06/17 10:03:12;;;;;;;;;8.00;6.50;;;;;28.42;36.79;101882.50;5079474;28;45481;-77
2022/06/17 10:06:13;;;;;;;;;6.50;6.50;;;;;28.47;36.55;101880.69;5058207;28;46613;-77
2022/06/17 10:09:03;;;;;;;;;6.00;6.00;;;;;28.48;37.21;101885.13;5076411;28;45716;-77
2022/06/17 10:11:49;;;;;;;;;7.00;7.00;;;;;28.49;37.09;101885.97;5076323;28;45366;-78
2022/06/17 10:14:43;;;;;;;;;10.00;8.75;;;;;28.53;36.36;101885.06;5076650;28;45363;-77
2022/06/17 10:20:37;;;;;;;;;8.75;8.75;;;;;28.63;36.06;101873.38;5076220;28;45835;-78
2022/06/17 10:23:08;;;;;;;;;7.50;7.25;;;;;28.68;36.44;101870.63;5076633;28;45445;-78
2022/06/17 10:25:46;;;;;;;;;8.75;8.75;;;;;28.72;36.48;101873.25;5060382;28;45316;-78
2022/06/17 10:28:39;;;;;;;;;6.50;6.00;;;;;28.68;36.13;101858.19;5082714;27;45659;-78
2022/06/17 10:31:23;;;;;;;;;7.50;6.75;;;;;28.75;35.62;101869.66;5063781;27;45408;-78
2022/06/17 10:33:49;;;;;;;;;5.50;5.50;;;;;28.77;34.81;101881.19;5078888;27;45422;-79
2022/06/17 10:36:15;;;;;;;;;7.25;7.25;;;;;28.78;34.50;101880.28;5080470;28;45417;-78
2022/06/17 10:38:47;;;;;;;;;7.25;7.25;;;;;28.82;34.81;101884.69;5080037;27;45369;-78
2022/06/17 10:41:13;;;;;;;;;7.25;7.25;;;;;28.79;34.59;101875.81;5079744;28;45707;-78
2022/06/17 10:43:46;;;;;;;;;6.50;6.50;;;;;28.82;33.86;101883.78;5079640;27;45330;-78
2022/06/17 10:46:21;;;;;;;;;7.75;7.00;;;;;28.84;34.65;101877.53;5065456;28;45516;-78
2022/06/17 10:48:55;;;;;;;;;7.00;7.00;;;;;28.94;34.87;101880.94;5083507;28;46240;-78
2022/06/17 10:51:21;;;;;;;;;7.25;7.00;;;;;28.95;34.96;101876.47;5083120;28;45403;-77
2022/06/17 10:53:56;;;;;;;;;7.50;7.50;;;;;28.98;34.71;101881.78;5083259;28;45324;-77
2022/06/17 10:56:27;;;;;;;;;9.50;9.50;;;;;29.03;34.36;101882.59;5085379;27;45358;-77
2022/06/17 10:59:00;;;;;;;;;10.50;10.50;;;;;29.00;34.33;101871.97;5079152;27;46932;-77
2022/06/17 11:01:45;;;;;;;;;8.50;8.50;;;;;29.08;34.08;101886.06;5080509;27;45366;-78
2022/06/17 11:04:30;;;;;;;;;11.50;9.00;;;;;29.12;34.52;101890.44;5080503;27;45331;-78
2022/06/17 11:06:55;;;;;;;;;8.75;8.75;;;;;29.15;34.03;101877.06;5085531;27;45305;-79
2022/06/17 11:09:45;;;;;;;;;7.25;7.25;;;;;29.19;34.02;101878.75;5091668;27;46157;-78
2022/06/17 11:12:22;;;;;;;;;9.50;9.50;;;;;29.14;34.55;101867.31;5075844;28;45527;-78
2022/06/17 11:14:54;;;;;;;;;8.75;8.75;;;;;29.24;34.78;101868.03;5079386;27;45390;-78
2022/06/17 11:17:44;;;;;;;;;9.50;8.75;;;;;29.29;34.20;101884.84;5081066;27;45455;-82
2022/06/17 11:20:16;;;;;;;;;8.25;7.75;;;;;29.35;34.47;101875.88;5080180;28;45341;-76
2022/06/17 11:22:55;;;;;;;;;9.25;9.00;;;;;29.43;34.52;101871.28;5085763;27;45552;-74
2022/06/17 11:25:32;;;;;;;;;9.75;8.00;;;;;29.47;34.36;101869.44;5061914;28;45349;-77
2022/06/17 11:28:33;;;;;;;;;9.00;7.25;;;;;29.53;34.12;101866.69;5048444;28;45453;-73
2022/06/17 11:31:11;;;;;;;;;8.75;8.75;;;;;29.59;34.78;101871.03;5040689;28;46970;-74
2022/06/17 11:33:42;;;;;;;;;10.00;9.75;;;;;29.68;34.28;101862.84;5061870;28;45339;-77
2022/06/17 11:36:22;;;;;;;;;7.75;7.75;;;;;29.74;34.20;101856.53;5088014;27;45513;-76
2022/06/17 11:38:49;;;;;;;;;7.25;7.25;;;;;29.83;34.19;101868.78;5079117;27;45391;-75
2022/06/17 11:41:27;;;;;;;;;9.75;7.75;;;;;29.89;33.40;101850.88;5078199;27;45435;-74
2022/06/17 11:43:56;;;;;;;;;9.50;8.00;;;;;29.94;33.36;101841.03;5078573;27;45776;-76
2022/06/17 11:46:33;;;;;;;;;7.25;7.00;;;;;29.95;34.05;101833.88;5078935;28;45532;-74
2022/06/17 11:49:10;;;;;;;;;7.25;7.25;;;;;30.04;33.76;101836.34;5077775;27;45462;-76